Time;durP1;ratioP1;P1;durP2;ratioP2;P2;SDS_P1;SDS_P2;PMS_P1;PMS_P2;Temp;Humidity;BMP_temperature;BMP_pressure;BME280_temperature;BME280_humidity;BME280_pressure;Samples;Min_cycle;Max_cycle;Signal;HPM_P1;HPM_P2
2022/06/06 00:03:37;;;;;;;8.95;8.45;;;;;;;;;;10427685;28;20218;-76
2022/06/06 00:08:39;;;;;;;8.70;8.20;;;;;;;;;;10446230;28;20279;-77
2022/06/06 00:13:43;;;;;;;7.18;6.88;;;;;;;;;;10435377;28;20236;-78
2022/06/06 00:18:44;;;;;;;5.30;5.18;;;;;;;;;;10434359;28;20178;-78
2022/06/06 00:23:45;;;;;;;5.22;5.03;;;;;;;;;;10435439;28;20222;-75
2022/06/06 00:28:49;;;;;;;4.22;4.13;;;;;;;;;;10418045;28;20238;-74
2022/06/06 00:39:12;;;;;;;3.70;3.60;;;;;;;;;;10446505;28;20600;-75
2022/06/06 00:44:18;;;;;;;4.05;3.95;;;;;;;;;;10443255;28;20201;-74
2022/06/06 00:49:39;;;;;;;4.00;3.80;;;;;;;;;;10462451;28;20224;-75
2022/06/06 00:54:41;;;;;;;3.90;3.80;;;;;;;;;;10455033;28;21165;-75
2022/06/06 00:59:43;;;;;;;3.97;3.70;;;;;;;;;;10459545;28;20299;-74
2022/06/06 01:04:45;;;;;;;4.10;4.00;;;;;;;;;;10446814;28;20225;-76
2022/06/06 01:09:47;;;;;;;4.43;4.20;;;;;;;;;;10469918;28;20738;-75
2022/06/06 01:14:50;;;;;;;4.10;4.00;;;;;;;;;;10476703;28;20242;-74
2022/06/06 01:19:59;;;;;;;4.43;4.32;;;;;;;;;;10463687;28;20293;-75
2022/06/06 01:25:19;;;;;;;4.30;4.10;;;;;;;;;;10459190;28;20289;-75
2022/06/06 01:30:22;;;;;;;5.47;5.05;;;;;;;;;;10431798;28;20182;-76
2022/06/06 01:35:35;;;;;;;4.97;4.63;;;;;;;;;;10459593;28;20194;-75
2022/06/06 01:40:40;;;;;;;4.07;3.88;;;;;;;;;;10464408;28;20680;-76
2022/06/06 01:45:46;;;;;;;4.85;4.75;;;;;;;;;;10455118;28;20244;-75
2022/06/06 01:50:47;;;;;;;3.75;3.75;;;;;;;;;;10460946;28;20194;-74
2022/06/06 01:55:50;;;;;;;4.43;4.32;;;;;;;;;;10455183;28;20388;-74
2022/06/06 02:00:51;;;;;;;4.80;4.55;;;;;;;;;;10455979;28;20226;-75
2022/06/06 02:05:52;;;;;;;3.97;3.88;;;;;;;;;;10456151;28;20223;-74
2022/06/06 02:10:54;;;;;;;3.50;3.50;;;;;;;;;;10401875;28;20182;-74
2022/06/06 02:15:55;;;;;;;3.40;3.10;;;;;;;;;;10368798;28;20682;-75
2022/06/06 02:20:58;;;;;;;3.47;3.38;;;;;;;;;;10398789;28;20226;-74
2022/06/06 02:25:59;;;;;;;3.10;3.00;;;;;;;;;;10396906;28;20211;-74
2022/06/06 02:31:00;;;;;;;3.03;2.80;;;;;;;;;;10386552;28;20214;-74
2022/06/06 02:36:02;;;;;;;2.08;2.08;;;;;;;;;;10391307;28;20200;-74
2022/06/06 02:41:09;;;;;;;2.28;2.28;;;;;;;;;;10392380;28;20202;-74
2022/06/06 02:46:11;;;;;;;2.50;2.35;;;;;;;;;;10406984;28;20474;-75
2022/06/06 02:51:13;;;;;;;1.75;1.75;;;;;;;;;;10395695;28;20191;-74
2022/06/06 02:56:14;;;;;;;2.00;1.98;;;;;;;;;;10407792;28;20205;-74
2022/06/06 03:01:15;;;;;;;1.88;1.88;;;;;;;;;;10396495;28;20211;-73
2022/06/06 03:06:16;;;;;;;2.05;2.05;;;;;;;;;;10432393;28;20222;-74
2022/06/06 03:11:35;;;;;;;2.33;2.33;;;;;;;;;;10440151;28;20182;-73
2022/06/06 03:22:28;;;;;;;2.28;2.17;;;;;;;;;;10413951;28;20261;-73
2022/06/06 03:27:32;;;;;;;2.30;2.15;;;;;;;;;;10461380;28;20186;-74
2022/06/06 03:32:42;;;;;;;1.90;1.90;;;;;;;;;;10448237;28;20781;-73
2022/06/06 03:38:02;;;;;;;3.15;2.65;;;;;;;;;;10467041;28;20248;-74
2022/06/06 03:43:12;;;;;;;2.55;2.35;;;;;;;;;;10454248;28;20534;-74
2022/06/06 03:48:24;;;;;;;2.40;2.40;;;;;;;;;;10462345;28;20179;-74
2022/06/06 03:53:33;;;;;;;2.50;2.50;;;;;;;;;;10449242;28;20202;-74
2022/06/06 03:58:35;;;;;;;2.95;2.55;;;;;;;;;;10469004;28;20209;-74
2022/06/06 04:03:36;;;;;;;2.90;2.80;;;;;;;;;;10458774;28;20217;-75
2022/06/06 04:08:37;;;;;;;2.75;2.65;;;;;;;;;;10454590;28;20245;-76
2022/06/06 04:13:38;;;;;;;3.33;3.22;;;;;;;;;;10457362;28;20198;-79
2022/06/06 04:18:48;;;;;;;3.55;3.50;;;;;;;;;;10456480;28;20224;-78
2022/06/06 04:23:52;;;;;;;2.70;2.70;;;;;;;;;;10450614;28;20246;-76
2022/06/06 04:28:56;;;;;;;3.00;2.90;;;;;;;;;;10441491;28;20202;-76
2022/06/06 04:33:57;;;;;;;3.30;3.30;;;;;;;;;;10440004;28;20209;-77
2022/06/06 04:39:05;;;;;;;3.30;3.30;;;;;;;;;;10462236;28;20175;-77
2022/06/06 04:44:06;;;;;;;3.22;3.03;;;;;;;;;;10444436;28;20259;-76
2022/06/06 04:49:08;;;;;;;2.85;2.85;;;;;;;;;;10450234;28;20174;-76
2022/06/06 04:54:12;;;;;;;4.13;2.75;;;;;;;;;;10426566;28;20199;-77
2022/06/06 04:59:15;;;;;;;3.00;2.90;;;;;;;;;;10459867;28;20710;-77
2022/06/06 05:04:16;;;;;;;3.03;2.92;;;;;;;;;;10458810;28;20221;-77
2022/06/06 05:09:38;;;;;;;2.90;2.80;;;;;;;;;;10411718;28;20917;-76
2022/06/06 05:14:50;;;;;;;2.63;2.53;;;;;;;;;;10418364;28;20206;-77
2022/06/06 05:20:10;;;;;;;2.90;2.90;;;;;;;;;;10398052;28;20254;-76
2022/06/06 05:25:20;;;;;;;3.13;2.10;;;;;;;;;;10404250;28;20996;-77
2022/06/06 05:30:27;;;;;;;2.25;2.25;;;;;;;;;;10399935;28;20186;-76
2022/06/06 05:35:47;;;;;;;1.77;1.77;;;;;;;;;;10399537;28;20199;-76
2022/06/06 05:41:10;;;;;;;1.95;1.95;;;;;;;;;;10411323;28;20692;-76
2022/06/06 05:46:11;;;;;;;1.90;1.90;;;;;;;;;;10406186;28;21387;-76
2022/06/06 05:51:21;;;;;;;4.18;2.45;;;;;;;;;;10409089;28;20709;-76
2022/06/06 05:56:28;;;;;;;2.78;2.67;;;;;;;;;;10405853;28;20206;-76
2022/06/06 06:01:44;;;;;;;2.38;2.38;;;;;;;;;;10433190;28;20226;-75
2022/06/06 06:06:57;;;;;;;2.75;2.55;;;;;;;;;;10436745;28;20905;-76
2022/06/06 06:12:17;;;;;;;2.70;2.70;;;;;;;;;;10434084;28;20185;-76
2022/06/06 06:17:20;;;;;;;2.92;2.70;;;;;;;;;;10431184;28;20208;-75
2022/06/06 06:22:21;;;;;;;2.10;2.10;;;;;;;;;;10417219;28;20214;-75
2022/06/06 06:27:24;;;;;;;2.65;2.53;;;;;;;;;;10413266;28;20175;-77
2022/06/06 06:32:35;;;;;;;2.55;2.45;;;;;;;;;;10430816;28;20213;-77
2022/06/06 06:37:36;;;;;;;3.05;2.95;;;;;;;;;;10428394;28;20180;-77
2022/06/06 06:42:49;;;;;;;3.75;3.63;;;;;;;;;;10424614;28;20237;-75
2022/06/06 06:47:52;;;;;;;3.58;3.47;;;;;;;;;;10447385;28;20175;-75
2022/06/06 06:53:12;;;;;;;3.70;3.47;;;;;;;;;;10422971;28;20194;-76
2022/06/06 06:58:31;;;;;;;3.65;3.45;;;;;;;;;;10411257;28;20203;-76
2022/06/06 07:09:22;;;;;;;3.30;3.30;;;;;;;;;;10457717;28;20224;-76
2022/06/06 07:14:29;;;;;;;3.67;3.58;;;;;;;;;;10429018;28;20709;-76
2022/06/06 07:19:33;;;;;;;3.58;3.38;;;;;;;;;;10452791;28;20236;-76
2022/06/06 07:24:34;;;;;;;3.78;3.58;;;;;;;;;;10444778;28;20195;-76
2022/06/06 07:29:35;;;;;;;3.42;3.33;;;;;;;;;;10445293;28;21013;-76
2022/06/06 07:34:37;;;;;;;3.38;3.28;;;;;;;;;;10429119;28;20388;-77
2022/06/06 07:39:44;;;;;;;3.90;3.70;;;;;;;;;;10445833;28;20929;-77
2022/06/06 07:44:48;;;;;;;5.00;4.72;;;;;;;;;;10417066;28;20283;-78
2022/06/06 07:49:55;;;;;;;4.63;4.40;;;;;;;;;;10438817;28;20937;-76
2022/06/06 07:55:22;;;;;;;4.43;4.13;;;;;;;;;;10438878;28;20194;-77
2022/06/06 08:00:25;;;;;;;4.95;4.20;;;;;;;;;;10426831;28;20213;-76
2022/06/06 08:05:43;;;;;;;4.25;4.03;;;;;;;;;;10464752;28;20301;-77
2022/06/06 08:10:45;;;;;;;4.57;4.30;;;;;;;;;;10467176;28;20193;-77
2022/06/06 08:16:04;;;;;;;6.57;5.57;;;;;;;;;;10466916;28;20842;-78
2022/06/06 08:21:05;;;;;;;4.95;4.65;;;;;;;;;;10465446;28;20214;-77
2022/06/06 08:26:08;;;;;;;5.28;4.82;;;;;;;;;;10465428;28;21020;-76
2022/06/06 08:31:09;;;;;;;4.72;4.43;;;;;;;;;;10466556;28;21740;-76
2022/06/06 08:36:19;;;;;;;4.57;4.28;;;;;;;;;;10465127;28;20199;-76
2022/06/06 08:41:32;;;;;;;4.88;4.55;;;;;;;;;;10440645;28;20229;-77
2022/06/06 08:46:33;;;;;;;4.32;3.92;;;;;;;;;;10466627;28;20353;-76
2022/06/06 08:51:51;;;;;;;4.90;4.57;;;;;;;;;;10461727;28;20196;-78
2022/06/06 08:56:55;;;;;;;4.43;4.18;;;;;;;;;;10463444;28;20197;-76
2022/06/06 09:02:05;;;;;;;5.13;4.72;;;;;;;;;;10464283;28;20248;-77
2022/06/06 09:07:25;;;;;;;4.90;4.60;;;;;;;;;;10462016;28;20232;-77
2022/06/06 09:12:36;;;;;;;4.72;4.55;;;;;;;;;;10416435;28;20190;-76
2022/06/06 09:17:46;;;;;;;4.80;4.50;;;;;;;;;;10456260;28;20288;-76
2022/06/06 09:23:16;;;;;;;4.20;3.70;;;;;;;;;;10465506;28;20202;-76
2022/06/06 09:28:17;;;;;;;3.95;3.55;;;;;;;;;;10417484;28;20209;-77
2022/06/06 09:33:18;;;;;;;4.53;4.22;;;;;;;;;;10446069;28;20717;-79
2022/06/06 09:38:19;;;;;;;3.80;3.70;;;;;;;;;;10421250;28;20178;-76
2022/06/06 09:43:32;;;;;;;3.33;3.22;;;;;;;;;;10439162;28;20212;-78
2022/06/06 09:48:52;;;;;;;4.15;3.63;;;;;;;;;;10449049;28;20163;-77
2022/06/06 09:59:37;;;;;;;4.65;3.80;;;;;;;;;;10460118;28;20942;-80
2022/06/06 10:04:57;;;;;;;4.00;3.70;;;;;;;;;;10457360;28;20276;-75
2022/06/06 10:09:58;;;;;;;2.88;2.72;;;;;;;;;;10462689;28;20189;-76
2022/06/06 10:15:15;;;;;;;3.13;2.97;;;;;;;;;;10445465;28;20828;-76
2022/06/06 10:20:31;;;;;;;2.67;2.55;;;;;;;;;;10461333;28;20707;-77
2022/06/06 10:25:41;;;;;;;2.05;2.00;;;;;;;;;;10449683;28;20226;-76
2022/06/06 10:30:51;;;;;;;2.63;2.17;;;;;;;;;;10449273;28;20213;-77
2022/06/06 10:35:52;;;;;;;3.70;1.52;;;;;;;;;;10405823;28;20194;-77
2022/06/06 10:41:04;;;;;;;2.10;2.10;;;;;;;;;;10416502;28;20210;-76
2022/06/06 10:46:14;;;;;;;1.80;1.50;;;;;;;;;;10449877;28;20906;-77
2022/06/06 10:51:37;;;;;;;1.73;1.73;;;;;;;;;;10444097;28;20174;-76
2022/06/06 10:56:53;;;;;;;3.67;1.80;;;;;;;;;;10452354;28;20297;-78
2022/06/06 11:02:09;;;;;;;2.22;2.03;;;;;;;;;;10447735;28;20221;-78
2022/06/06 11:07:39;;;;;;;2.13;2.10;;;;;;;;;;10427158;28;20974;-75
2022/06/06 11:12:45;;;;;;;1.70;1.70;;;;;;;;;;10438016;28;20718;-76
2022/06/06 11:17:59;;;;;;;1.98;1.90;;;;;;;;;;10417870;28;20267;-75
2022/06/06 11:23:21;;;;;;;2.05;2.05;;;;;;;;;;10428772;28;20225;-76
2022/06/06 11:28:42;;;;;;;1.92;1.85;;;;;;;;;;10445842;28;20199;-76
2022/06/06 11:34:01;;;;;;;1.80;1.80;;;;;;;;;;10428108;28;20268;-78
2022/06/06 11:39:23;;;;;;;1.52;1.52;;;;;;;;;;10445345;28;20182;-77
2022/06/06 11:44:27;;;;;;;2.05;1.95;;;;;;;;;;10441171;28;20689;-77
2022/06/06 11:49:48;;;;;;;1.10;1.10;;;;;;;;;;10444293;28;20177;-76
2022/06/06 11:54:55;;;;;;;1.13;1.00;;;;;;;;;;10441724;28;20207;-77
2022/06/06 12:00:11;;;;;;;1.20;1.10;;;;;;;;;;10441362;28;21079;-77
2022/06/06 12:05:22;;;;;;;0.93;0.93;;;;;;;;;;10431324;28;20769;-77
2022/06/06 12:10:25;;;;;;;2.28;1.10;;;;;;;;;;10428232;28;20269;-77
2022/06/06 12:15:45;;;;;;;1.30;1.10;;;;;;;;;;10463803;28;20260;-77
2022/06/06 12:20:56;;;;;;;1.13;1.13;;;;;;;;;;10432512;28;20360;-77
2022/06/06 12:25:59;;;;;;;1.25;1.20;;;;;;;;;;10452977;28;20195;-76
2022/06/06 12:31:09;;;;;;;1.13;1.05;;;;;;;;;;10430791;28;20917;-77
2022/06/06 12:36:14;;;;;;;1.30;1.30;;;;;;;;;;10435231;28;20209;-78
2022/06/06 12:41:20;;;;;;;1.20;1.20;;;;;;;;;;10430670;28;20195;-77
2022/06/06 12:46:21;;;;;;;1.33;1.33;;;;;;;;;;10420270;28;20203;-77
2022/06/06 12:51:40;;;;;;;1.02;1.00;;;;;;;;;;10462775;28;20570;-77
2022/06/06 12:56:52;;;;;;;0.90;0.90;;;;;;;;;;10446529;28;20195;-77
2022/06/06 13:02:08;;;;;;;2.30;1.10;;;;;;;;;;10420562;28;20224;-76
2022/06/06 13:07:19;;;;;;;1.85;1.13;;;;;;;;;;10448267;28;20929;-76
2022/06/06 13:12:40;;;;;;;1.88;1.02;;;;;;;;;;10419641;28;20226;-75
2022/06/06 13:17:44;;;;;;;3.60;1.30;;;;;;;;;;10444021;28;20192;-76
2022/06/06 13:22:51;;;;;;;1.05;1.00;;;;;;;;;;10444085;28;20242;-76
2022/06/06 13:27:57;;;;;;;1.48;1.27;;;;;;;;;;10437532;28;20179;-77
2022/06/06 13:33:17;;;;;;;1.40;1.40;;;;;;;;;;10407808;28;20214;-76
2022/06/06 13:38:30;;;;;;;2.60;1.10;;;;;;;;;;10393538;28;20190;-76
2022/06/06 13:43:51;;;;;;;1.35;0.90;;;;;;;;;;10415650;28;21225;-76
2022/06/06 13:48:58;;;;;;;3.45;0.70;;;;;;;;;;10424656;28;20179;-76
2022/06/06 13:54:04;;;;;;;1.10;0.50;;;;;;;;;;10408705;28;20350;-76
2022/06/06 13:59:08;;;;;;;2.30;0.60;;;;;;;;;;10434225;28;20186;-77
2022/06/06 14:04:09;;;;;;;1.00;0.50;;;;;;;;;;10432588;28;20214;-77
2022/06/06 14:09:15;;;;;;;0.52;0.52;;;;;;;;;;10417803;28;20225;-76
2022/06/06 14:14:18;;;;;;;0.50;0.50;;;;;;;;;;10426729;28;20198;-77
2022/06/06 14:19:20;;;;;;;1.10;0.70;;;;;;;;;;10426281;28;20198;-77
2022/06/06 14:24:23;;;;;;;0.55;0.55;;;;;;;;;;10398795;28;20217;-76
2022/06/06 14:29:33;;;;;;;0.80;0.80;;;;;;;;;;10439270;28;20182;-78
2022/06/06 14:34:36;;;;;;;0.80;0.80;;;;;;;;;;10450226;28;20250;-76
2022/06/06 14:39:38;;;;;;;0.70;0.70;;;;;;;;;;10444931;28;20305;-76
2022/06/06 14:44:45;;;;;;;1.33;0.70;;;;;;;;;;10424159;28;20267;-78
2022/06/06 14:50:45;;;;;;;0.63;0.63;;;;;;;;;;10419381;28;20175;-77
2022/06/06 14:55:09;;;;;;;1.20;0.70;;;;;;;;;;10439734;28;20993;-76
2022/06/06 15:00:15;;;;;;;0.60;0.60;;;;;;;;;;10416563;28;20306;-76
2022/06/06 15:05:18;;;;;;;0.93;0.80;;;;;;;;;;10425619;28;20257;-76
2022/06/06 15:10:38;;;;;;;0.80;0.80;;;;;;;;;;10395594;28;20183;-76
2022/06/06 15:15:40;;;;;;;0.70;0.70;;;;;;;;;;10443951;28;20726;-76
2022/06/06 15:20:44;;;;;;;2.95;0.77;;;;;;;;;;10428606;28;20217;-77
2022/06/06 15:25:58;;;;;;;3.42;0.80;;;;;;;;;;10424936;28;20203;-77
2022/06/06 15:31:14;;;;;;;1.05;0.55;;;;;;;;;;10432785;28;20297;-77
2022/06/06 15:36:35;;;;;;;17.73;10.23;;;;;;;;;;10411832;28;20256;-77
2022/06/06 15:41:42;;;;;;;1.30;0.85;;;;;;;;;;10432063;28;20293;-76
2022/06/06 15:47:06;;;;;;;132.02;84.10;;;;;;;;;;10409919;28;20260;-76
2022/06/06 15:52:22;;;;;;;282.08;131.20;;;;;;;;;;10420501;28;20311;-77
2022/06/06 15:57:29;;;;;;;121.63;61.90;;;;;;;;;;10445634;28;20182;-76
2022/06/06 16:02:33;;;;;;;10.85;7.35;;;;;;;;;;10389383;28;20842;-76
2022/06/06 16:07:39;;;;;;;87.93;58.03;;;;;;;;;;10429932;28;20227;-76
2022/06/06 16:12:41;;;;;;;9.50;5.68;;;;;;;;;;10417478;28;20271;-76
2022/06/06 16:17:45;;;;;;;2.25;2.15;;;;;;;;;;10440506;28;20183;-75
2022/06/06 16:22:49;;;;;;;1.25;0.60;;;;;;;;;;10439170;28;20230;-76
2022/06/06 16:27:53;;;;;;;0.50;0.50;;;;;;;;;;10402152;28;20175;-77
2022/06/06 16:32:57;;;;;;;0.70;0.70;;;;;;;;;;10431206;28;20286;-76
2022/06/06 16:38:02;;;;;;;1.42;0.50;;;;;;;;;;10432753;28;20178;-77
2022/06/06 16:49:00;;;;;;;1.55;0.60;;;;;;;;;;10419454;28;20974;-76
2022/06/06 16:54:07;;;;;;;0.47;0.47;;;;;;;;;;10423632;28;20210;-76
2022/06/06 16:59:17;;;;;;;1.15;0.40;;;;;;;;;;10422747;28;20178;-75
2022/06/06 17:04:22;;;;;;;3.38;0.55;;;;;;;;;;10392611;28;20245;-76
2022/06/06 17:09:31;;;;;;;0.40;0.40;;;;;;;;;;10433963;28;20249;-77
2022/06/06 17:14:33;;;;;;;0.30;0.30;;;;;;;;;;10437052;28;20238;-76
2022/06/06 17:19:37;;;;;;;0.30;0.30;;;;;;;;;;10430378;28;20183;-76
2022/06/06 17:24:41;;;;;;;0.43;0.43;;;;;;;;;;10438356;28;20214;-76
2022/06/06 17:30:00;;;;;;;2.75;1.58;;;;;;;;;;10439279;28;20771;-76
2022/06/06 17:35:13;;;;;;;0.50;0.50;;;;;;;;;;10431447;28;20216;-76
2022/06/06 17:40:32;;;;;;;0.30;0.30;;;;;;;;;;10396759;28;20246;-76
2022/06/06 17:45:38;;;;;;;0.30;0.30;;;;;;;;;;10440134;28;20212;-76
2022/06/06 17:50:42;;;;;;;0.47;0.20;;;;;;;;;;10428771;28;20686;-77
2022/06/06 17:56:02;;;;;;;0.30;0.30;;;;;;;;;;10442623;28;20211;-76
2022/06/06 18:01:12;;;;;;;0.85;0.20;;;;;;;;;;10451338;28;20229;-76
2022/06/06 18:06:35;;;;;;;0.30;0.30;;;;;;;;;;10430533;28;21336;-76
2022/06/06 18:11:36;;;;;;;0.30;0.30;;;;;;;;;;10449694;28;20663;-76
2022/06/06 18:16:46;;;;;;;0.40;0.40;;;;;;;;;;10431749;28;20206;-76
2022/06/06 18:21:49;;;;;;;0.75;0.30;;;;;;;;;;10430865;28;20214;-76
2022/06/06 18:26:54;;;;;;;0.30;0.30;;;;;;;;;;10443246;28;20271;-76
2022/06/06 18:31:58;;;;;;;1.08;0.30;;;;;;;;;;10449577;28;20229;-76
2022/06/06 18:37:00;;;;;;;0.30;0.30;;;;;;;;;;10440663;28;20264;-76
2022/06/06 18:42:04;;;;;;;0.88;0.30;;;;;;;;;;10453664;28;20206;-76
2022/06/06 18:47:25;;;;;;;0.65;0.20;;;;;;;;;;10409386;28;20212;-75
2022/06/06 18:52:28;;;;;;;1.58;0.40;;;;;;;;;;10443528;28;20248;-76
2022/06/06 18:57:29;;;;;;;0.55;0.30;;;;;;;;;;10415478;28;20210;-75
2022/06/06 19:02:33;;;;;;;0.30;0.30;;;;;;;;;;10451203;28;20279;-75
2022/06/06 19:07:40;;;;;;;0.30;0.30;;;;;;;;;;10442884;28;20257;-75
2022/06/06 19:12:58;;;;;;;0.40;0.40;;;;;;;;;;10458928;28;20718;-76
2022/06/06 19:18:15;;;;;;;1.27;0.40;;;;;;;;;;10446485;28;20198;-75
2022/06/06 19:23:19;;;;;;;0.32;0.30;;;;;;;;;;10464278;28;20659;-74
2022/06/06 19:28:31;;;;;;;1.23;0.40;;;;;;;;;;10455234;28;20182;-75
2022/06/06 19:33:32;;;;;;;1.05;0.40;;;;;;;;;;10466392;28;20218;-75
2022/06/06 19:38:33;;;;;;;0.50;0.50;;;;;;;;;;10425395;28;20234;-74
2022/06/06 19:43:34;;;;;;;0.43;0.40;;;;;;;;;;10456735;28;20212;-75
2022/06/06 19:48:46;;;;;;;0.40;0.40;;;;;;;;;;10449725;28;20181;-75
2022/06/06 19:53:52;;;;;;;0.73;0.57;;;;;;;;;;10452033;28;20201;-75
2022/06/06 19:58:53;;;;;;;0.93;0.93;;;;;;;;;;10455827;28;20178;-74
2022/06/06 20:03:58;;;;;;;1.17;0.43;;;;;;;;;;10443976;28;20221;-75
2022/06/06 20:09:01;;;;;;;0.50;0.50;;;;;;;;;;10455184;28;20237;-74
2022/06/06 20:14:03;;;;;;;0.40;0.40;;;;;;;;;;10452068;28;20234;-74
2022/06/06 20:19:17;;;;;;;0.40;0.40;;;;;;;;;;10452879;28;20209;-74
2022/06/06 20:24:24;;;;;;;0.60;0.60;;;;;;;;;;10455795;28;20223;-75
2022/06/06 20:29:27;;;;;;;0.60;0.60;;;;;;;;;;10426073;28;20186;-75
2022/06/06 20:34:37;;;;;;;0.80;0.80;;;;;;;;;;10453194;28;20295;-76
2022/06/06 20:39:40;;;;;;;1.00;0.70;;;;;;;;;;10449522;28;20175;-75
2022/06/06 20:44:46;;;;;;;0.70;0.63;;;;;;;;;;10451324;28;20633;-75
2022/06/06 20:49:49;;;;;;;0.50;0.50;;;;;;;;;;10431995;28;20305;-75
2022/06/06 20:54:52;;;;;;;1.52;0.60;;;;;;;;;;10454191;28;20226;-75
2022/06/06 20:59:54;;;;;;;0.52;0.52;;;;;;;;;;10442986;28;20737;-76
2022/06/06 21:04:55;;;;;;;0.68;0.68;;;;;;;;;;10421554;28;20256;-75
2022/06/06 21:09:57;;;;;;;1.38;0.73;;;;;;;;;;10401642;28;20195;-75
2022/06/06 21:14:59;;;;;;;2.63;0.70;;;;;;;;;;10419262;28;20278;-75
2022/06/06 21:20:00;;;;;;;0.60;0.60;;;;;;;;;;10407971;28;20179;-75
2022/06/06 21:25:01;;;;;;;0.80;0.80;;;;;;;;;;10415993;28;20913;-75
2022/06/06 21:30:03;;;;;;;0.60;0.60;;;;;;;;;;10418643;28;20191;-75
2022/06/06 21:35:06;;;;;;;0.60;0.60;;;;;;;;;;10402849;28;20217;-75
2022/06/06 21:40:08;;;;;;;1.30;0.73;;;;;;;;;;10405812;28;20205;-75
2022/06/06 21:45:10;;;;;;;1.50;0.70;;;;;;;;;;10403762;28;20199;-75
2022/06/06 21:50:11;;;;;;;2.00;0.75;;;;;;;;;;10408827;28;20257;-75
2022/06/06 21:55:13;;;;;;;1.00;1.00;;;;;;;;;;10405122;28;20360;-74
2022/06/06 22:00:16;;;;;;;1.30;1.30;;;;;;;;;;10411692;28;20179;-76
2022/06/06 22:05:17;;;;;;;0.98;0.98;;;;;;;;;;10399900;28;20249;-72
2022/06/06 22:10:18;;;;;;;0.93;0.93;;;;;;;;;;10446479;28;24592;-72
2022/06/06 22:15:19;;;;;;;1.08;0.98;;;;;;;;;;10443948;28;20274;-72
2022/06/06 22:20:20;;;;;;;1.00;1.00;;;;;;;;;;10445718;28;20186;-73
2022/06/06 22:25:21;;;;;;;2.13;0.85;;;;;;;;;;10448885;28;20237;-73
2022/06/06 22:30:22;;;;;;;1.75;0.90;;;;;;;;;;10441005;28;20189;-72
2022/06/06 22:35:24;;;;;;;0.75;0.75;;;;;;;;;;10451944;28;20198;-72
2022/06/06 22:40:25;;;;;;;0.82;0.80;;;;;;;;;;10437660;28;20206;-72
2022/06/06 22:45:26;;;;;;;0.70;0.70;;;;;;;;;;10443623;28;20226;-72
2022/06/06 22:50:27;;;;;;;1.00;1.00;;;;;;;;;;10414390;28;20182;-72
2022/06/06 22:55:28;;;;;;;0.88;0.88;;;;;;;;;;10448031;28;20210;-73
2022/06/06 23:00:30;;;;;;;1.02;1.02;;;;;;;;;;10453260;28;20206;-71
2022/06/06 23:05:31;;;;;;;1.40;1.40;;;;;;;;;;10444764;28;20266;-71
2022/06/06 23:10:32;;;;;;;1.50;1.50;;;;;;;;;;10447741;28;20576;-71
2022/06/06 23:15:33;;;;;;;1.10;1.10;;;;;;;;;;10451608;28;20264;-71
2022/06/06 23:20:34;;;;;;;1.13;1.02;;;;;;;;;;10444018;28;20210;-71
2022/06/06 23:25:35;;;;;;;1.23;1.23;;;;;;;;;;10455364;28;20596;-71
2022/06/06 23:30:37;;;;;;;1.77;0.98;;;;;;;;;;10446105;28;20270;-71
2022/06/06 23:35:39;;;;;;;1.15;1.05;;;;;;;;;;10444740;28;20980;-71
2022/06/06 23:40:40;;;;;;;1.08;1.08;;;;;;;;;;10448156;28;21532;-72
2022/06/06 23:51:04;;;;;;;1.27;1.27;;;;;;;;;;10459332;28;20245;-71
2022/06/06 23:56:07;;;;;;;2.17;1.20;;;;;;;;;;10448979;28;20849;-71
